Time;durP1;ratioP1;P1;durP2;ratioP2;P2;SDS_P1;SDS_P2;PMS_P1;PMS_P2;Temp;Humidity;BMP_temperature;BMP_pressure;BME280_temperature;BME280_humidity;BME280_pressure;Samples;Min_cycle;Max_cycle;Signal;HPM_P1;HPM_P2
2022/07/20 00:00:35;;;;;;;4.57;4.10;;;25.60;73.10;;;;;;483451;245;29301;-70
2022/07/20 00:02:37;;;;;;;4.67;4.27;;;25.60;73.30;;;;;;483370;245;29237;-69
2022/07/20 00:04:38;;;;;;;4.50;4.10;;;25.50;73.80;;;;;;483437;245;29294;-69
2022/07/20 00:06:39;;;;;;;4.13;3.60;;;25.30;74.10;;;;;;483382;245;28879;-69
2022/07/20 00:13:19;;;;;;;4.03;3.40;;;25.30;75.00;;;;;;483418;246;28832;-73
2022/07/20 00:15:21;;;;;;;4.40;4.00;;;25.10;75.80;;;;;;483451;245;28790;-69
2022/07/20 00:17:22;;;;;;;5.13;4.10;;;25.10;75.00;;;;;;483389;246;28817;-70
2022/07/20 00:19:23;;;;;;;4.80;3.80;;;25.10;74.80;;;;;;483432;245;28901;-69
2022/07/20 00:21:24;;;;;;;3.33;3.13;;;25.10;75.20;;;;;;483443;245;28900;-69
2022/07/20 00:23:26;;;;;;;4.23;3.93;;;25.00;76.60;;;;;;483458;245;28823;-71
2022/07/20 00:25:27;;;;;;;3.73;3.40;;;24.90;75.80;;;;;;483432;245;28909;-69
2022/07/20 00:27:28;;;;;;;6.93;4.30;;;24.90;76.30;;;;;;483352;245;29293;-69
2022/07/20 00:29:29;;;;;;;3.70;3.40;;;24.80;76.90;;;;;;483443;245;30129;-69
2022/07/20 00:31:31;;;;;;;3.70;3.40;;;24.80;76.70;;;;;;483437;245;29351;-69
2022/07/20 00:33:32;;;;;;;3.83;3.50;;;24.80;77.70;;;;;;483447;245;29311;-71
2022/07/20 00:35:33;;;;;;;6.03;3.63;;;24.70;76.90;;;;;;483360;245;28939;-69
2022/07/20 00:37:34;;;;;;;6.10;3.93;;;24.70;76.40;;;;;;483366;245;28829;-70
2022/07/20 00:39:36;;;;;;;4.33;3.93;;;24.70;79.00;;;;;;483429;245;28835;-69
2022/07/20 00:41:37;;;;;;;4.20;3.80;;;24.60;78.10;;;;;;483411;245;28909;-68
2022/07/20 00:43:38;;;;;;;4.00;3.70;;;24.70;76.30;;;;;;483438;245;28824;-72
2022/07/20 00:45:39;;;;;;;4.43;4.03;;;24.70;77.60;;;;;;483419;245;28883;-69
2022/07/20 00:47:41;;;;;;;4.90;4.10;;;24.60;78.40;;;;;;483373;245;28816;-71
2022/07/20 00:49:42;;;;;;;11.03;5.00;;;24.50;78.70;;;;;;483443;245;28831;-69
2022/07/20 00:51:43;;;;;;;4.17;3.77;;;24.50;78.70;;;;;;483426;245;29233;-68
2022/07/20 00:53:44;;;;;;;5.70;4.67;;;24.40;78.80;;;;;;483460;245;29382;-72
2022/07/20 00:55:46;;;;;;;5.63;4.73;;;24.40;79.10;;;;;;483462;245;29291;-68
2022/07/20 00:57:47;;;;;;;4.27;3.90;;;24.30;78.90;;;;;;483383;245;29333;-70
2022/07/20 00:59:48;;;;;;;4.07;3.63;;;24.30;80.60;;;;;;483424;245;28765;-69
2022/07/20 01:01:49;;;;;;;4.10;3.70;;;24.20;81.60;;;;;;483438;245;28857;-68
2022/07/20 01:03:51;;;;;;;3.60;3.30;;;24.10;82.20;;;;;;483437;246;28835;-72
2022/07/20 01:05:52;;;;;;;5.07;4.57;;;24.00;82.50;;;;;;483357;245;28842;-69
2022/07/20 01:07:53;;;;;;;4.40;4.00;;;24.00;80.80;;;;;;483272;245;28824;-69
2022/07/20 01:09:54;;;;;;;5.20;4.50;;;24.10;80.00;;;;;;483420;245;28871;-68
2022/07/20 01:11:56;;;;;;;4.43;4.03;;;24.00;81.70;;;;;;483434;245;28809;-69
2022/07/20 01:13:57;;;;;;;4.17;3.87;;;23.90;82.20;;;;;;483416;246;28813;-71
2022/07/20 01:15:58;;;;;;;4.13;3.73;;;23.90;82.60;;;;;;483428;245;29331;-69
2022/07/20 01:17:59;;;;;;;4.47;4.03;;;23.80;81.10;;;;;;483392;245;29360;-69
2022/07/20 01:20:01;;;;;;;3.87;3.57;;;23.80;80.30;;;;;;483439;245;29255;-68
2022/07/20 01:22:02;;;;;;;7.73;4.50;;;23.80;83.40;;;;;;483466;245;29323;-69
2022/07/20 01:24:04;;;;;;;4.17;3.80;;;23.70;82.50;;;;;;483468;245;28824;-72
2022/07/20 01:26:04;;;;;;;4.20;3.90;;;23.70;84.20;;;;;;483404;245;28743;-69
2022/07/20 01:28:06;;;;;;;4.13;3.67;;;23.70;83.60;;;;;;483442;243;28891;-72
2022/07/20 01:30:07;;;;;;;4.20;3.80;;;23.70;83.00;;;;;;483458;246;28775;-69
2022/07/20 01:32:08;;;;;;;4.40;4.00;;;23.60;83.50;;;;;;483460;245;28872;-69
2022/07/20 01:34:09;;;;;;;3.70;3.40;;;23.60;83.10;;;;;;483462;246;28819;-72
2022/07/20 01:36:11;;;;;;;3.80;3.50;;;23.60;81.10;;;;;;483326;245;28896;-68
2022/07/20 01:38:12;;;;;;;3.60;3.30;;;23.60;83.50;;;;;;483484;245;28824;-69
2022/07/20 01:40:13;;;;;;;9.17;3.33;;;23.50;82.40;;;;;;483476;245;28684;-69
2022/07/20 01:42:14;;;;;;;4.23;3.83;;;23.50;82.00;;;;;;483460;245;29150;-70
2022/07/20 01:44:16;;;;;;;9.50;4.03;;;23.50;83.50;;;;;;483406;245;29184;-72
2022/07/20 01:46:17;;;;;;;4.00;3.67;;;23.40;85.30;;;;;;483397;245;29260;-69
2022/07/20 01:48:18;;;;;;;4.00;3.70;;;23.30;85.50;;;;;;483464;246;28813;-70
2022/07/20 01:50:19;;;;;;;3.67;3.37;;;23.30;86.00;;;;;;483465;245;28677;-69
2022/07/20 01:52:21;;;;;;;4.27;3.90;;;23.30;85.80;;;;;;483420;245;28692;-69
2022/07/20 01:54:22;;;;;;;4.10;3.80;;;23.20;86.10;;;;;;483478;245;28836;-71
2022/07/20 01:56:23;;;;;;;4.47;4.07;;;23.20;86.20;;;;;;483385;245;28779;-68
2022/07/20 01:58:24;;;;;;;4.90;4.40;;;23.20;85.90;;;;;;483443;245;28822;-70
2022/07/20 02:00:26;;;;;;;5.87;3.83;;;23.20;87.20;;;;;;483472;245;28912;-69
2022/07/20 02:02:27;;;;;;;4.23;3.83;;;23.10;86.60;;;;;;483460;245;28812;-68
2022/07/20 02:04:28;;;;;;;4.00;3.70;;;23.10;86.70;;;;;;483444;246;28805;-71
2022/07/20 02:06:29;;;;;;;5.20;3.97;;;23.00;85.50;;;;;;483336;245;29244;-68
2022/07/20 02:08:31;;;;;;;3.70;3.40;;;23.00;87.00;;;;;;483415;245;29357;-69
2022/07/20 02:10:32;;;;;;;3.73;3.43;;;22.90;87.40;;;;;;483450;245;29294;-68
2022/07/20 02:12:33;;;;;;;6.47;4.23;;;22.80;87.50;;;;;;483443;245;28848;-68
2022/07/20 02:14:34;;;;;;;4.80;4.27;;;22.70;87.80;;;;;;483457;245;28827;-70
2022/07/20 02:16:36;;;;;;;4.67;4.17;;;22.60;88.30;;;;;;483391;245;28783;-68
2022/07/20 02:18:37;;;;;;;4.03;3.63;;;22.60;88.60;;;;;;483435;245;29379;-68
2022/07/20 02:20:38;;;;;;;4.20;3.80;;;22.60;88.70;;;;;;483452;245;30022;-68
2022/07/20 02:22:40;;;;;;;4.60;4.20;;;22.60;88.60;;;;;;483456;245;29310;-68
2022/07/20 02:24:41;;;;;;;4.40;4.00;;;22.60;88.60;;;;;;483449;245;29367;-70
2022/07/20 02:26:42;;;;;;;4.10;3.70;;;22.60;88.50;;;;;;483372;245;28843;-68
2022/07/20 02:28:43;;;;;;;3.70;3.40;;;22.60;88.70;;;;;;483455;245;28871;-69
2022/07/20 02:30:45;;;;;;;4.30;3.90;;;22.60;88.90;;;;;;483452;245;28821;-68
2022/07/20 02:32:46;;;;;;;3.80;3.50;;;22.50;89.30;;;;;;483454;246;28777;-69
2022/07/20 02:34:47;;;;;;;4.20;3.80;;;22.50;89.60;;;;;;483296;245;28905;-72
2022/07/20 02:36:48;;;;;;;3.57;3.27;;;22.50;89.70;;;;;;483409;245;28795;-68
2022/07/20 02:38:50;;;;;;;4.67;3.50;;;22.50;90.00;;;;;;483446;246;28804;-69
2022/07/20 02:40:51;;;;;;;3.87;3.57;;;22.40;90.40;;;;;;483431;245;29166;-68
2022/07/20 02:42:52;;;;;;;8.60;4.27;;;22.20;90.20;;;;;;483446;245;29365;-68
2022/07/20 02:44:53;;;;;;;4.17;3.80;;;22.10;90.30;;;;;;483453;245;29657;-71
2022/07/20 02:46:55;;;;;;;4.03;3.63;;;22.00;90.60;;;;;;483352;245;29255;-68
2022/07/20 02:48:56;;;;;;;5.00;4.17;;;22.00;90.30;;;;;;483450;245;29281;-69
2022/07/20 02:50:57;;;;;;;4.43;4.03;;;22.10;90.40;;;;;;483446;245;28801;-69
2022/07/20 02:52:58;;;;;;;4.50;4.13;;;22.10;90.70;;;;;;483418;246;28785;-70
2022/07/20 02:55:00;;;;;;;4.97;4.50;;;21.90;90.70;;;;;;483457;245;28852;-70
2022/07/20 02:57:01;;;;;;;4.00;3.60;;;21.70;90.90;;;;;;483404;245;28778;-69
2022/07/20 02:59:02;;;;;;;5.30;4.17;;;21.70;91.00;;;;;;483458;245;28800;-69
2022/07/20 03:01:03;;;;;;;4.60;4.20;;;21.70;91.30;;;;;;483486;245;28892;-71
2022/07/20 03:03:05;;;;;;;3.90;3.60;;;21.80;91.30;;;;;;483477;245;28783;-69
2022/07/20 03:05:06;;;;;;;4.10;3.70;;;21.80;91.40;;;;;;483467;245;28902;-70
2022/07/20 03:07:07;;;;;;;4.60;4.10;;;21.60;91.30;;;;;;483379;245;28786;-68
2022/07/20 03:09:08;;;;;;;4.10;3.80;;;21.40;91.80;;;;;;483457;245;29310;-68
2022/07/20 03:11:10;;;;;;;4.03;3.70;;;21.40;92.00;;;;;;483451;245;30033;-68
2022/07/20 03:13:11;;;;;;;4.53;4.13;;;21.30;92.20;;;;;;483454;245;29300;-69
2022/07/20 03:15:12;;;;;;;4.43;4.00;;;21.20;92.30;;;;;;483429;245;28936;-70
2022/07/20 03:17:13;;;;;;;4.83;4.43;;;21.20;92.20;;;;;;483379;245;28782;-68
2022/07/20 03:19:15;;;;;;;5.63;4.40;;;21.20;92.30;;;;;;483425;245;28804;-70
2022/07/20 03:21:16;;;;;;;4.37;3.97;;;21.20;92.30;;;;;;483413;246;28781;-68
2022/07/20 03:23:17;;;;;;;4.50;4.10;;;21.30;92.60;;;;;;483447;245;28769;-70
2022/07/20 03:25:18;;;;;;;5.70;4.20;;;21.20;92.90;;;;;;483385;245;28832;-70
2022/07/20 03:27:20;;;;;;;3.97;3.67;;;21.20;93.20;;;;;;483376;246;28796;-68
2022/07/20 03:29:21;;;;;;;5.07;4.50;;;21.20;93.30;;;;;;483326;245;28819;-69
2022/07/20 03:31:22;;;;;;;4.60;4.20;;;21.10;93.30;;;;;;483445;245;28837;-69
2022/07/20 03:33:23;;;;;;;5.13;4.73;;;21.10;93.20;;;;;;483451;245;29348;-68
2022/07/20 03:35:25;;;;;;;4.90;4.33;;;21.00;93.40;;;;;;483259;245;29321;-71
2022/07/20 03:37:26;;;;;;;5.03;4.53;;;20.90;93.30;;;;;;483370;245;29252;-68
2022/07/20 03:39:27;;;;;;;6.13;4.17;;;21.00;93.30;;;;;;483449;246;28822;-69
2022/07/20 03:41:28;;;;;;;7.00;4.50;;;20.90;93.80;;;;;;483431;245;28918;-69
2022/07/20 03:43:30;;;;;;;3.93;3.63;;;20.70;94.30;;;;;;483453;246;28788;-69
2022/07/20 03:45:31;;;;;;;4.50;4.10;;;20.70;94.50;;;;;;483442;246;28809;-70
2022/07/20 03:47:33;;;;;;;5.43;4.93;;;20.50;95.50;;;;;;483376;245;28841;-68
2022/07/20 03:49:33;;;;;;;5.90;5.30;;;20.30;95.70;;;;;;483393;246;28840;-69
2022/07/20 03:51:38;;;;;;;7.40;5.73;;;20.10;95.60;;;;;;483445;245;28919;-72
2022/07/20 03:53:36;;;;;;;5.70;5.13;;;20.10;95.60;;;;;;482983;246;28801;-68
2022/07/20 03:55:37;;;;;;;5.17;4.67;;;20.30;95.20;;;;;;483452;245;28819;-69
2022/07/20 03:57:38;;;;;;;7.33;5.60;;;20.40;95.10;;;;;;483261;245;29226;-68
2022/07/20 03:59:40;;;;;;;6.00;5.43;;;20.50;95.10;;;;;;483388;245;29292;-69
2022/07/20 04:01:41;;;;;;;5.00;4.50;;;20.60;95.10;;;;;;483459;245;29396;-72
2022/07/20 04:03:42;;;;;;;5.10;4.50;;;20.60;94.80;;;;;;483438;245;29396;-68
2022/07/20 04:05:43;;;;;;;6.93;4.80;;;20.80;94.60;;;;;;483459;245;28810;-69
2022/07/20 04:07:45;;;;;;;5.97;5.27;;;20.80;94.30;;;;;;483379;245;28801;-70
2022/07/20 04:09:46;;;;;;;5.80;4.40;;;20.80;94.50;;;;;;483399;245;28805;-68
2022/07/20 04:11:47;;;;;;;5.50;5.00;;;20.90;94.40;;;;;;483357;245;28906;-71
2022/07/20 04:13:48;;;;;;;5.57;5.03;;;20.80;94.60;;;;;;483438;245;28844;-69
2022/07/20 04:15:50;;;;;;;5.10;4.70;;;20.80;94.50;;;;;;483429;245;28821;-69
2022/07/20 04:17:51;;;;;;;7.07;4.70;;;20.80;94.50;;;;;;483363;245;28894;-67
2022/07/20 04:19:52;;;;;;;4.87;4.47;;;20.80;94.40;;;;;;483441;245;28823;-68
2022/07/20 04:21:53;;;;;;;5.40;4.90;;;20.80;95.20;;;;;;483446;245;29303;-72
2022/07/20 04:23:55;;;;;;;4.80;4.30;;;20.80;95.20;;;;;;483454;245;29313;-68
2022/07/20 04:25:56;;;;;;;4.50;4.10;;;20.90;95.20;;;;;;483445;245;29303;-69
2022/07/20 04:27:58;;;;;;;5.10;4.60;;;21.00;95.10;;;;;;483367;245;29286;-68
2022/07/20 04:29:58;;;;;;;6.10;4.83;;;20.90;95.10;;;;;;483433;245;28809;-70
2022/07/20 04:32:00;;;;;;;6.40;4.67;;;20.90;95.40;;;;;;483438;245;28886;-71
2022/07/20 04:34:01;;;;;;;4.60;4.20;;;20.70;95.80;;;;;;483418;245;28782;-68
2022/07/20 04:36:02;;;;;;;6.33;5.27;;;20.70;95.90;;;;;;483225;246;28891;-70
2022/07/20 04:38:03;;;;;;;5.20;4.80;;;20.70;96.10;;;;;;483413;245;28891;-68
2022/07/20 04:40:05;;;;;;;5.40;4.90;;;20.80;95.80;;;;;;483434;245;28805;-69
2022/07/20 04:42:06;;;;;;;5.60;4.70;;;20.80;96.30;;;;;;483437;245;28824;-71
2022/07/20 04:44:07;;;;;;;5.10;4.60;;;20.80;96.70;;;;;;483441;245;28801;-69
2022/07/20 04:46:08;;;;;;;5.13;4.67;;;20.80;96.90;;;;;;483338;246;28821;-69
2022/07/20 04:48:10;;;;;;;5.30;4.90;;;20.90;97.20;;;;;;483450;245;29216;-69
2022/07/20 04:50:12;;;;;;;4.97;4.57;;;20.90;97.30;;;;;;483445;245;29321;-69
2022/07/20 04:52:13;;;;;;;7.17;4.53;;;21.00;97.20;;;;;;483430;246;29284;-73
2022/07/20 04:54:13;;;;;;;5.17;4.73;;;21.00;96.80;;;;;;483359;246;28862;-69
2022/07/20 04:56:15;;;;;;;6.63;4.70;;;21.10;96.60;;;;;;483379;245;28912;-69
2022/07/20 04:58:16;;;;;;;4.63;4.30;;;21.20;96.30;;;;;;483444;245;28779;-69
2022/07/20 05:00:17;;;;;;;5.20;4.70;;;21.30;96.30;;;;;;483428;245;28801;-70
2022/07/20 05:02:18;;;;;;;5.37;4.10;;;21.30;96.60;;;;;;483444;245;28804;-72
2022/07/20 05:04:20;;;;;;;4.60;4.20;;;21.30;97.00;;;;;;483432;245;28922;-68
2022/07/20 05:06:21;;;;;;;6.20;4.90;;;21.30;97.00;;;;;;483377;245;28920;-70
2022/07/20 05:08:22;;;;;;;5.60;4.60;;;21.40;96.80;;;;;;483437;246;28812;-69
2022/07/20 05:10:23;;;;;;;4.70;4.30;;;21.50;97.10;;;;;;483434;245;28882;-69
2022/07/20 05:12:25;;;;;;;4.63;4.23;;;21.50;97.10;;;;;;483439;245;29283;-72
2022/07/20 05:14:26;;;;;;;4.00;3.70;;;21.60;97.80;;;;;;483438;245;29529;-68
2022/07/20 05:16:27;;;;;;;4.57;4.27;;;21.50;98.30;;;;;;483394;245;29273;-69
2022/07/20 05:18:29;;;;;;;4.50;4.17;;;21.60;97.90;;;;;;483449;245;28772;-69
2022/07/20 05:20:30;;;;;;;4.77;4.37;;;21.60;97.60;;;;;;483426;245;28896;-69
2022/07/20 05:22:31;;;;;;;4.93;4.43;;;21.70;97.60;;;;;;483439;245;28828;-72
2022/07/20 05:24:32;;;;;;;4.93;4.47;;;21.70;99.50;;;;;;483426;246;28834;-69
2022/07/20 05:26:33;;;;;;;5.40;4.90;;;21.60;99.90;;;;;;483353;245;28913;-70
2022/07/20 05:28:35;;;;;;;4.90;4.40;;;21.50;99.90;;;;;;483441;245;28791;-68
2022/07/20 05:30:36;;;;;;;5.00;4.60;;;21.50;99.90;;;;;;483435;245;28824;-69
2022/07/20 05:32:37;;;;;;;4.73;4.33;;;21.50;99.90;;;;;;483426;245;29191;-72
2022/07/20 05:34:38;;;;;;;4.63;4.23;;;21.40;99.80;;;;;;483154;245;29320;-69
2022/07/20 05:36:40;;;;;;;4.87;4.40;;;21.50;99.60;;;;;;483370;245;29383;-70
2022/07/20 05:38:41;;;;;;;5.43;4.90;;;21.50;98.10;;;;;;483436;245;29234;-69
2022/07/20 05:40:42;;;;;;;5.00;4.27;;;21.60;97.50;;;;;;483458;245;29310;-69
2022/07/20 05:42:43;;;;;;;5.60;4.13;;;21.70;97.90;;;;;;483472;245;30022;-68
2022/07/20 05:44:45;;;;;;;7.90;4.40;;;21.80;98.00;;;;;;483440;245;28768;-69
2022/07/20 05:46:46;;;;;;;4.70;4.30;;;21.90;97.80;;;;;;483382;245;28815;-71
2022/07/20 05:48:47;;;;;;;4.60;4.20;;;21.90;97.90;;;;;;483429;246;28878;-69
2022/07/20 05:50:49;;;;;;;4.50;4.10;;;22.00;97.90;;;;;;483427;245;28943;-70
2022/07/20 05:52:50;;;;;;;4.10;3.70;;;22.10;98.30;;;;;;483127;246;28859;-71
2022/07/20 05:54:51;;;;;;;4.30;3.90;;;22.10;97.30;;;;;;482078;245;28811;-69
2022/07/20 05:56:52;;;;;;;4.20;3.90;;;22.20;97.20;;;;;;482151;245;29126;-70
2022/07/20 05:58:53;;;;;;;4.73;4.33;;;22.30;97.20;;;;;;483140;245;28797;-68
2022/07/20 06:00:55;;;;;;;5.40;4.90;;;22.40;97.20;;;;;;483429;245;29312;-69
2022/07/20 06:02:56;;;;;;;4.73;4.40;;;22.50;97.20;;;;;;483435;245;29392;-69
2022/07/20 06:04:57;;;;;;;4.30;4.00;;;22.60;97.10;;;;;;483428;246;29314;-69
2022/07/20 06:06:58;;;;;;;4.03;3.73;;;22.70;97.20;;;;;;483342;245;29367;-70
2022/07/20 06:09:00;;;;;;;3.97;3.67;;;22.70;97.20;;;;;;483454;245;28781;-69
2022/07/20 06:11:01;;;;;;;4.20;3.90;;;22.80;97.00;;;;;;483446;245;28891;-69
2022/07/20 06:13:02;;;;;;;4.13;3.83;;;22.90;98.40;;;;;;483462;245;28797;-69
2022/07/20 06:15:03;;;;;;;3.80;3.50;;;22.90;99.90;;;;;;483446;245;28775;-69
2022/07/20 06:17:05;;;;;;;5.80;4.47;;;22.90;99.90;;;;;;483389;245;28892;-71
2022/07/20 06:19:06;;;;;;;4.77;4.37;;;23.00;99.90;;;;;;483455;245;28784;-69
2022/07/20 06:21:07;;;;;;;4.30;3.90;;;23.00;99.80;;;;;;483458;245;28830;-69
2022/07/20 06:23:08;;;;;;;4.83;4.33;;;23.00;99.30;;;;;;483442;245;28848;-69
2022/07/20 06:25:10;;;;;;;4.93;4.00;;;23.10;99.00;;;;;;483454;246;28780;-69
2022/07/20 06:27:12;;;;;;;4.67;4.27;;;23.20;98.50;;;;;;483391;245;29220;-71
2022/07/20 06:29:12;;;;;;;5.57;4.90;;;23.30;98.00;;;;;;483395;246;29314;-69
2022/07/20 06:31:13;;;;;;;4.60;4.20;;;23.50;97.00;;;;;;483417;245;29312;-70
2022/07/20 06:33:15;;;;;;;4.93;4.43;;;23.70;95.80;;;;;;483452;245;28681;-69
2022/07/20 06:35:16;;;;;;;5.00;4.60;;;24.00;95.70;;;;;;483213;245;28778;-69
2022/07/20 06:37:17;;;;;;;4.73;4.03;;;24.10;96.00;;;;;;483372;245;28910;-72
2022/07/20 06:39:19;;;;;;;5.00;4.60;;;24.20;96.10;;;;;;483453;246;28817;-69
2022/07/20 06:41:20;;;;;;;4.57;4.17;;;24.20;95.50;;;;;;483406;246;28820;-70
2022/07/20 06:43:23;;;;;;;7.00;4.70;;;24.30;95.50;;;;;;483479;245;28780;-68
2022/07/20 06:45:22;;;;;;;4.53;4.10;;;24.50;96.00;;;;;;483359;246;28925;-69
2022/07/20 06:47:24;;;;;;;4.60;4.20;;;24.60;96.00;;;;;;483377;245;28835;-71
2022/07/20 06:49:25;;;;;;;5.30;4.80;;;24.70;95.20;;;;;;483470;245;28791;-69
2022/07/20 06:51:26;;;;;;;4.50;4.10;;;24.80;95.30;;;;;;483462;245;29291;-69
2022/07/20 06:53:27;;;;;;;4.80;4.40;;;24.80;95.30;;;;;;483488;245;30031;-69
2022/07/20 06:55:29;;;;;;;4.73;4.33;;;25.00;95.00;;;;;;483454;245;29373;-69
2022/07/20 06:57:30;;;;;;;4.40;4.00;;;25.00;93.80;;;;;;483452;245;28725;-71
2022/07/20 06:59:31;;;;;;;4.07;3.77;;;25.10;94.90;;;;;;483456;245;28801;-69
2022/07/20 07:01:32;;;;;;;4.80;4.10;;;25.20;95.00;;;;;;483463;245;28819;-70
2022/07/20 07:03:34;;;;;;;4.37;4.00;;;25.30;94.40;;;;;;483490;245;28696;-68
2022/07/20 07:05:35;;;;;;;5.27;4.63;;;25.30;93.30;;;;;;483442;245;28873;-69
2022/07/20 07:07:36;;;;;;;5.53;5.00;;;25.40;93.80;;;;;;483387;245;28821;-73
2022/07/20 07:09:37;;;;;;;5.13;4.73;;;25.50;93.30;;;;;;483469;245;28799;-69
2022/07/20 07:11:39;;;;;;;5.20;4.57;;;25.40;93.20;;;;;;483462;245;28819;-72
2022/07/20 07:13:40;;;;;;;5.27;4.87;;;25.50;93.80;;;;;;483415;246;28898;-69
2022/07/20 07:15:41;;;;;;;4.60;4.20;;;25.60;93.90;;;;;;483437;245;29256;-69
2022/07/20 07:17:42;;;;;;;4.90;4.50;;;25.60;93.90;;;;;;483379;245;29398;-71
2022/07/20 07:19:44;;;;;;;5.53;5.03;;;25.70;93.50;;;;;;483454;245;29252;-69
2022/07/20 07:21:45;;;;;;;6.67;5.07;;;25.70;93.90;;;;;;483436;245;28867;-69
2022/07/20 07:23:49;;;;;;;5.50;5.10;;;25.80;93.50;;;;;;483436;245;28884;-69
2022/07/20 07:25:47;;;;;;;6.00;5.50;;;25.80;93.40;;;;;;483257;246;28804;-69
2022/07/20 07:27:49;;;;;;;6.07;5.43;;;25.90;93.50;;;;;;483375;245;28852;-71
2022/07/20 07:29:50;;;;;;;5.87;5.37;;;25.90;93.70;;;;;;483464;245;28903;-69
2022/07/20 07:31:51;;;;;;;7.90;6.03;;;25.90;93.90;;;;;;483457;245;28844;-70
2022/07/20 07:33:52;;;;;;;8.40;5.70;;;25.90;94.10;;;;;;483454;245;28785;-69
2022/07/20 07:35:54;;;;;;;7.50;6.70;;;25.90;94.00;;;;;;483159;246;28825;-68
2022/07/20 07:37:55;;;;;;;8.27;6.73;;;26.00;94.10;;;;;;483387;246;28817;-72
2022/07/20 07:39:56;;;;;;;8.03;7.23;;;25.90;94.60;;;;;;483440;246;29367;-69
2022/07/20 07:41:57;;;;;;;8.93;6.97;;;25.90;95.20;;;;;;483458;245;29371;-70
2022/07/20 07:43:59;;;;;;;9.73;6.57;;;25.90;95.00;;;;;;483445;246;29368;-69
2022/07/20 07:46:00;;;;;;;7.87;7.10;;;25.80;95.20;;;;;;483446;245;29303;-70
2022/07/20 07:48:01;;;;;;;9.77;8.37;;;25.70;95.30;;;;;;483407;245;28835;-72
2022/07/20 07:50:02;;;;;;;8.43;7.63;;;25.80;95.00;;;;;;483434;245;28846;-70
2022/07/20 07:52:04;;;;;;;8.50;7.53;;;25.90;95.20;;;;;;483454;244;28836;-70
2022/07/20 07:54:05;;;;;;;8.33;7.47;;;25.90;95.30;;;;;;483444;246;28787;-69
2022/07/20 07:56:06;;;;;;;8.43;7.63;;;26.00;95.90;;;;;;483376;245;28845;-74
2022/07/20 07:58:07;;;;;;;9.87;8.13;;;26.00;96.20;;;;;;483451;245;28856;-73
2022/07/20 08:00:09;;;;;;;12.20;7.37;;;25.90;95.20;;;;;;483442;245;28900;-69
2022/07/20 08:02:10;;;;;;;12.13;9.30;;;25.90;95.40;;;;;;483447;245;28838;-70
2022/07/20 08:04:12;;;;;;;11.07;8.47;;;25.90;95.60;;;;;;483456;245;29320;-69
2022/07/20 08:06:12;;;;;;;9.03;8.10;;;25.90;95.40;;;;;;483378;245;29291;-69
2022/07/20 08:08:14;;;;;;;8.83;7.93;;;25.90;95.40;;;;;;483450;245;29477;-72
2022/07/20 08:10:15;;;;;;;10.10;7.90;;;26.00;96.10;;;;;;483444;245;28793;-69
2022/07/20 08:12:16;;;;;;;10.03;8.00;;;26.10;96.30;;;;;;483467;245;28892;-70
2022/07/20 08:14:17;;;;;;;13.23;8.43;;;26.00;95.90;;;;;;483447;245;28779;-69
2022/07/20 08:16:19;;;;;;;9.57;7.33;;;26.00;95.60;;;;;;483379;246;28829;-70
2022/07/20 08:18:20;;;;;;;11.60;7.20;;;26.10;96.10;;;;;;483456;246;28916;-72
2022/07/20 08:20:22;;;;;;;8.50;7.47;;;26.20;95.60;;;;;;483436;245;28781;-69
2022/07/20 08:22:22;;;;;;;9.10;7.90;;;26.10;95.90;;;;;;483434;246;28840;-70
2022/07/20 08:24:24;;;;;;;10.20;7.03;;;26.00;95.70;;;;;;483448;245;29225;-69
2022/07/20 08:26:25;;;;;;;10.10;7.83;;;26.10;95.20;;;;;;483386;245;29356;-69
2022/07/20 08:28:26;;;;;;;8.00;7.17;;;26.10;95.30;;;;;;483441;245;29322;-72
2022/07/20 08:30:27;;;;;;;9.60;7.13;;;26.20;95.10;;;;;;483463;245;28788;-69
2022/07/20 08:32:29;;;;;;;13.00;7.60;;;26.30;94.90;;;;;;483451;245;28891;-70
2022/07/20 08:34:30;;;;;;;9.90;8.30;;;26.40;94.20;;;;;;483284;245;28781;-69
2022/07/20 08:36:31;;;;;;;14.90;7.27;;;26.30;94.50;;;;;;483364;245;28789;-70
2022/07/20 08:38:32;;;;;;;8.50;7.63;;;26.30;95.00;;;;;;483439;245;28899;-70
2022/07/20 08:40:34;;;;;;;10.50;7.60;;;26.60;95.40;;;;;;483454;245;28873;-69
2022/07/20 08:42:35;;;;;;;12.03;6.80;;;26.80;94.20;;;;;;483436;245;28837;-70
2022/07/20 08:44:36;;;;;;;12.00;7.70;;;26.80;94.20;;;;;;483438;245;29234;-69
2022/07/20 08:46:37;;;;;;;10.07;7.40;;;26.70;94.30;;;;;;483392;245;29240;-70
2022/07/20 08:48:39;;;;;;;10.97;7.03;;;26.70;94.60;;;;;;483423;245;29289;-72
2022/07/20 08:50:40;;;;;;;10.33;7.23;;;26.70;93.80;;;;;;483443;245;28776;-69
2022/07/20 08:52:41;;;;;;;13.90;6.87;;;26.60;94.10;;;;;;483430;245;28809;-70
2022/07/20 08:54:42;;;;;;;7.27;6.57;;;26.60;94.20;;;;;;483444;246;28913;-69
2022/07/20 08:56:44;;;;;;;6.50;5.70;;;26.70;93.50;;;;;;483378;245;28918;-69
2022/07/20 08:58:45;;;;;;;9.03;6.93;;;26.70;93.70;;;;;;483440;245;28986;-73
2022/07/20 09:00:46;;;;;;;7.20;6.50;;;27.00;94.00;;;;;;483378;245;28784;-70
2022/07/20 09:02:47;;;;;;;8.40;6.70;;;27.20;93.70;;;;;;483415;246;28815;-71
2022/07/20 09:04:49;;;;;;;10.33;6.20;;;27.40;93.40;;;;;;483448;245;29325;-70
2022/07/20 09:06:50;;;;;;;8.20;6.67;;;27.50;93.00;;;;;;483340;245;29295;-69
2022/07/20 09:08:51;;;;;;;9.70;6.87;;;27.60;92.70;;;;;;483354;245;29391;-72
2022/07/20 09:10:53;;;;;;;8.67;5.90;;;27.70;93.10;;;;;;483445;245;28928;-69
2022/07/20 09:12:54;;;;;;;8.03;6.40;;;27.70;92.50;;;;;;483376;245;28895;-71
2022/07/20 09:14:55;;;;;;;6.43;5.83;;;27.60;93.20;;;;;;483440;245;28794;-69
2022/07/20 09:16:56;;;;;;;7.20;6.47;;;27.80;93.20;;;;;;483387;245;28819;-70
2022/07/20 09:18:57;;;;;;;7.60;6.20;;;27.70;92.40;;;;;;483437;245;28823;-69
2022/07/20 09:20:59;;;;;;;7.67;5.57;;;27.50;91.70;;;;;;483433;245;28797;-69
2022/07/20 09:23:00;;;;;;;6.73;6.03;;;27.40;92.50;;;;;;483448;245;28831;-71
2022/07/20 09:25:01;;;;;;;6.80;5.47;;;27.30;91.60;;;;;;483450;245;28789;-69
2022/07/20 09:27:02;;;;;;;6.70;5.93;;;27.10;92.80;;;;;;483355;245;28831;-69
2022/07/20 09:29:04;;;;;;;6.40;5.80;;;27.10;92.70;;;;;;480472;245;36405;-72
2022/07/20 09:31:05;;;;;;;10.17;5.87;;;27.20;92.30;;;;;;483449;245;27909;-69
2022/07/20 09:33:06;;;;;;;5.80;5.30;;;27.20;92.60;;;;;;483467;245;29299;-70
2022/07/20 09:35:07;;;;;;;5.93;5.33;;;27.20;92.60;;;;;;483378;245;28772;-69
2022/07/20 09:37:09;;;;;;;5.63;5.13;;;27.20;92.50;;;;;;483374;245;28825;-70
2022/07/20 09:39:10;;;;;;;6.70;5.50;;;27.20;92.70;;;;;;483447;245;28831;-69
2022/07/20 09:41:11;;;;;;;8.83;6.10;;;27.30;93.00;;;;;;483461;245;28808;-69
2022/07/20 09:43:13;;;;;;;6.20;5.70;;;27.60;92.40;;;;;;483450;245;28830;-70
2022/07/20 09:45:14;;;;;;;6.67;5.53;;;27.70;92.30;;;;;;483459;245;28785;-69
2022/07/20 09:47:15;;;;;;;9.50;6.90;;;27.70;92.90;;;;;;483396;243;28826;-69
2022/07/20 09:49:16;;;;;;;5.47;4.97;;;27.80;92.30;;;;;;483470;245;28742;-72
2022/07/20 09:51:18;;;;;;;7.73;5.50;;;27.70;92.20;;;;;;483466;245;28922;-69
2022/07/20 09:53:19;;;;;;;7.73;5.93;;;27.80;92.80;;;;;;483423;245;29377;-70
2022/07/20 09:55:20;;;;;;;6.77;5.90;;;28.00;92.70;;;;;;483417;245;29277;-69
2022/07/20 09:57:21;;;;;;;9.57;5.80;;;28.10;92.90;;;;;;483371;245;29280;-69
2022/07/20 09:59:23;;;;;;;8.27;6.10;;;28.20;92.30;;;;;;483447;245;28730;-72
2022/07/20 10:01:24;;;;;;;7.03;5.73;;;28.10;92.50;;;;;;483447;245;28879;-70
2022/07/20 10:03:25;;;;;;;9.17;6.27;;;28.00;92.00;;;;;;483459;245;28818;-70
2022/07/20 10:05:26;;;;;;;5.90;5.30;;;28.10;92.30;;;;;;483475;245;28867;-69
2022/07/20 10:07:28;;;;;;;7.23;6.00;;;28.20;92.40;;;;;;483395;245;28828;-70
2022/07/20 10:09:29;;;;;;;6.20;5.60;;;28.20;92.60;;;;;;483457;245;28730;-72
2022/07/20 10:11:30;;;;;;;7.10;5.53;;;28.30;92.60;;;;;;483467;245;28799;-69
2022/07/20 10:13:31;;;;;;;6.27;5.67;;;28.50;92.50;;;;;;483456;245;28722;-69
2022/07/20 10:15:33;;;;;;;6.70;5.90;;;28.60;92.10;;;;;;483456;245;28828;-69
2022/07/20 10:17:36;;;;;;;8.63;5.80;;;28.50;91.80;;;;;;483385;245;29261;-69
2022/07/20 10:19:35;;;;;;;7.13;6.43;;;28.50;92.00;;;;;;483338;246;29292;-72
2022/07/20 10:21:36;;;;;;;6.53;5.93;;;28.60;91.80;;;;;;483466;245;29240;-69
2022/07/20 10:23:38;;;;;;;6.67;5.97;;;28.80;91.80;;;;;;483468;245;28809;-70
2022/07/20 10:25:39;;;;;;;6.80;6.10;;;28.80;92.00;;;;;;483458;246;28849;-69
2022/07/20 10:27:40;;;;;;;7.90;6.83;;;28.70;91.70;;;;;;483394;245;28974;-70
2022/07/20 10:29:42;;;;;;;7.50;6.60;;;28.80;91.70;;;;;;483462;245;28843;-73
2022/07/20 10:31:43;;;;;;;6.93;6.23;;;28.80;91.20;;;;;;483435;245;28937;-69
2022/07/20 10:33:44;;;;;;;7.03;6.33;;;28.80;91.20;;;;;;483458;246;28837;-69